createdAt,value
2022-12-14T00:02:04.560Z,-1.50
2022-12-14T00:04:32.911Z,-1.40
2022-12-14T00:07:02.772Z,-1.40
2022-12-14T00:09:30.945Z,-1.30
2022-12-14T00:11:59.143Z,-1.30
2022-12-14T00:14:27.569Z,-1.30
2022-12-14T00:16:55.706Z,-1.30
2022-12-14T00:19:23.883Z,-1.40
2022-12-14T00:21:52.769Z,-1.40
2022-12-14T00:24:23.007Z,-1.30
2022-12-14T00:26:51.158Z,-1.30
2022-12-14T00:29:19.548Z,-1.10
2022-12-14T00:31:48.861Z,-1.10
2022-12-14T00:34:17.713Z,-1.10
2022-12-14T00:36:46.106Z,-1.20
2022-12-14T00:39:14.588Z,-1.20
2022-12-14T00:41:44.496Z,-1.20
2022-12-14T00:44:12.796Z,-1.10
2022-12-14T00:46:41.368Z,-1.00
2022-12-14T00:49:09.967Z,-1.00
2022-12-14T00:51:38.855Z,-1.00
2022-12-14T00:54:07.487Z,-1.00
2022-12-14T00:56:35.702Z,-1.20
2022-12-14T00:59:05.484Z,-1.20
2022-12-14T01:01:34.268Z,-1.30
2022-12-14T01:04:16.471Z,-1.30
2022-12-14T01:06:45.350Z,-1.30
2022-12-14T01:09:14.242Z,-1.20
2022-12-14T01:11:42.656Z,-1.20
2022-12-14T01:14:14.655Z,-1.20
2022-12-14T01:16:43.088Z,-1.10
2022-12-14T01:19:12.601Z,-1.10
2022-12-14T01:21:41.106Z,-1.00
2022-12-14T01:24:09.858Z,-1.00
2022-12-14T01:26:39.685Z,-0.90
2022-12-14T01:29:09.120Z,-1.00
2022-12-14T01:31:39.858Z,-1.00
2022-12-14T01:34:08.753Z,-1.10
2022-12-14T01:36:38.443Z,-1.10
2022-12-14T01:39:09.621Z,-1.00
2022-12-14T01:41:39.978Z,-1.00
2022-12-14T01:44:41.313Z,-1.00
2022-12-14T01:47:17.541Z,-1.00
2022-12-14T01:49:49.068Z,-0.90
2022-12-14T01:52:23.225Z,-0.90
2022-12-14T01:54:55.644Z,-0.90
2022-12-14T01:57:28.540Z,-0.90
2022-12-14T02:00:02.292Z,-0.80
2022-12-14T02:02:38.163Z,-0.80
2022-12-14T02:05:10.548Z,-0.80
2022-12-14T02:07:40.307Z,-0.80
2022-12-14T02:10:10.227Z,-0.60
2022-12-14T02:12:41.920Z,-0.70
2022-12-14T02:15:11.740Z,-0.60
2022-12-14T02:17:44.510Z,-0.50
2022-12-14T02:20:13.974Z,-0.60
2022-12-14T02:23:27.766Z,-0.60
2022-12-14T02:26:28.681Z,-0.70
2022-12-14T02:29:24.965Z,-0.70
2022-12-14T02:32:03.786Z,-0.70
2022-12-14T02:34:40.441Z,-0.80
2022-12-14T02:37:17.922Z,-0.70
2022-12-14T02:39:57.318Z,-0.70
2022-12-14T02:42:33.521Z,-0.70
2022-12-14T02:45:09.801Z,-0.60
2022-12-14T02:47:42.166Z,-0.70
2022-12-14T02:50:15.933Z,-0.80
2022-12-14T02:52:54.354Z,-0.80
2022-12-14T02:55:27.674Z,-0.80
2022-12-14T02:58:02.390Z,-0.90
2022-12-14T03:00:34.968Z,-1.00
2022-12-14T03:03:05.634Z,-0.90
2022-12-14T03:05:34.628Z,-0.90
2022-12-14T03:08:05.004Z,-0.80
2022-12-14T03:10:40.185Z,-0.80
2022-12-14T03:13:16.761Z,-1.00
2022-12-14T03:15:51.925Z,-1.00
2022-12-14T03:18:24.256Z,-1.00
2022-12-14T03:20:55.107Z,-0.90
2022-12-14T03:23:26.906Z,-1.00
2022-12-14T03:26:01.004Z,-1.00
2022-12-14T03:28:35.291Z,-1.00
2022-12-14T03:31:08.046Z,-1.00
2022-12-14T03:33:39.244Z,-1.00
2022-12-14T03:36:15.462Z,-1.00
2022-12-14T03:38:46.308Z,-0.90
2022-12-14T03:41:22.520Z,-0.90
2022-12-14T03:44:06.688Z,-0.80
2022-12-14T03:46:45.956Z,-0.90
2022-12-14T03:49:21.686Z,-0.90
2022-12-14T03:51:59.360Z,-0.90
2022-12-14T03:54:37.682Z,-1.00
2022-12-14T03:57:12.636Z,-0.90
2022-12-14T03:59:50.583Z,-1.10
2022-12-14T04:02:26.678Z,-1.30
2022-12-14T04:04:59.248Z,-1.20
2022-12-14T04:07:37.322Z,-1.20
2022-12-14T04:10:33.253Z,-1.00
2022-12-14T04:13:24.373Z,-1.10
2022-12-14T04:16:13.975Z,-1.10
2022-12-14T04:19:00.468Z,-1.10
2022-12-14T04:21:37.963Z,-1.20
2022-12-14T04:24:31.274Z,-1.10
2022-12-14T04:27:08.309Z,-1.10
2022-12-14T04:29:59.370Z,-1.10
2022-12-14T04:32:32.917Z,-1.10
2022-12-14T04:35:05.284Z,-1.10
2022-12-14T04:37:38.461Z,-1.00
2022-12-14T04:40:10.646Z,-1.00
2022-12-14T04:42:50.849Z,-1.00
2022-12-14T04:45:24.749Z,-1.00
2022-12-14T04:48:01.660Z,-0.90
2022-12-14T04:50:35.940Z,-0.90
2022-12-14T04:53:12.373Z,-0.80
2022-12-14T04:55:44.493Z,-0.70
2022-12-14T04:58:17.937Z,-0.70
2022-12-14T05:01:17.559Z,-0.70
2022-12-14T05:03:52.570Z,-0.60
2022-12-14T05:06:27.537Z,-0.60
2022-12-14T05:09:09.512Z,-0.50
2022-12-14T05:11:53.749Z,-0.50
2022-12-14T05:14:28.663Z,-0.40
2022-12-14T05:16:57.675Z,-0.40
2022-12-14T05:19:26.762Z,-0.40
2022-12-14T05:21:57.144Z,-0.40
2022-12-14T05:24:25.313Z,-0.40
2022-12-14T05:26:53.498Z,-0.40
2022-12-14T05:29:21.875Z,-0.40
2022-12-14T05:31:50.169Z,-0.40
2022-12-14T05:34:18.786Z,-0.30
2022-12-14T05:36:47.299Z,-0.30
2022-12-14T05:39:17.603Z,-0.20
2022-12-14T05:41:46.129Z,-0.20
2022-12-14T05:44:15.021Z,-0.20
2022-12-14T05:46:43.245Z,-0.20
2022-12-14T05:49:11.540Z,-0.20
2022-12-14T05:51:40.497Z,-0.20
2022-12-14T05:54:08.885Z,-0.20
2022-12-14T05:56:38.489Z,-0.20
2022-12-14T05:59:07.073Z,-0.20
2022-12-14T06:01:35.301Z,-0.20
2022-12-14T06:04:03.486Z,-0.30
2022-12-14T06:06:34.183Z,-0.20
2022-12-14T06:09:02.379Z,-0.20
2022-12-14T06:11:30.617Z,-0.20
2022-12-14T06:14:00.627Z,-0.20
2022-12-14T06:16:28.999Z,-0.10
2022-12-14T06:18:58.643Z,-0.10
2022-12-14T06:21:30.463Z,-0.10
2022-12-14T06:23:59.690Z,-0.30
2022-12-14T06:26:29.649Z,-0.40
2022-12-14T06:29:00.316Z,-0.40
2022-12-14T06:31:30.447Z,-0.40
2022-12-14T06:34:00.361Z,-0.40
2022-12-14T06:36:30.975Z,-0.50
2022-12-14T06:39:02.769Z,-0.50
2022-12-14T06:41:31.371Z,-0.60
2022-12-14T06:44:05.598Z,-0.60
2022-12-14T06:46:34.881Z,-0.60
2022-12-14T06:49:03.560Z,-0.70
2022-12-14T06:51:32.176Z,-0.80
2022-12-14T06:54:00.607Z,-0.70
2022-12-14T06:56:29.318Z,-0.70
2022-12-14T06:58:58.477Z,-0.80
2022-12-14T07:01:29.256Z,-0.80
2022-12-14T07:03:59.348Z,-0.80
2022-12-14T07:06:29.826Z,-0.80
2022-12-14T07:09:00.283Z,-0.90
2022-12-14T07:11:29.899Z,-0.90
2022-12-14T07:14:00.679Z,-0.90
2022-12-14T07:16:30.856Z,-1.00
2022-12-14T07:18:59.202Z,-1.00
2022-12-14T07:21:27.621Z,-1.00
2022-12-14T07:23:56.409Z,-1.00
2022-12-14T07:26:27.581Z,-1.10
2022-12-14T07:28:56.352Z,-1.10
2022-12-14T07:31:28.557Z,-1.10
2022-12-14T07:34:01.131Z,-1.00
2022-12-14T07:36:30.938Z,-1.20
2022-12-14T07:38:59.198Z,-1.40
2022-12-14T07:41:30.870Z,-1.40
2022-12-14T07:44:00.842Z,-1.40
2022-12-14T07:46:32.147Z,-1.40
2022-12-14T07:49:03.539Z,-1.50
2022-12-14T07:51:33.457Z,-1.40
2022-12-14T07:54:02.515Z,-1.60
2022-12-14T07:56:32.640Z,-1.60
2022-12-14T07:59:01.871Z,-1.60
2022-12-14T08:01:31.683Z,-1.60
2022-12-14T08:04:05.255Z,-1.70
2022-12-14T08:06:33.752Z,-1.50
2022-12-14T08:09:02.477Z,-1.60
2022-12-14T08:11:30.975Z,-1.70
2022-12-14T08:14:00.839Z,-1.70
2022-12-14T08:16:29.571Z,-1.70
2022-12-14T08:18:59.798Z,-1.70
2022-12-14T08:21:30.306Z,-1.60
2022-12-14T08:23:59.279Z,-1.50
2022-12-14T08:26:34.966Z,-1.50
2022-12-14T08:29:04.979Z,-1.50
2022-12-14T08:31:34.394Z,-1.40
2022-12-14T08:34:03.245Z,-1.40
2022-12-14T08:36:35.332Z,-1.30
2022-12-14T08:39:05.545Z,-1.10
2022-12-14T08:41:34.348Z,-0.80
2022-12-14T08:44:04.491Z,0.00
2022-12-14T08:46:35.025Z,0.70
2022-12-14T08:49:03.674Z,1.50
2022-12-14T08:51:33.381Z,2.00
2022-12-14T08:54:01.534Z,2.20
2022-12-14T08:56:30.137Z,2.90
2022-12-14T08:58:58.995Z,3.80
2022-12-14T09:01:33.512Z,4.70
2022-12-14T09:04:07.974Z,5.60
2022-12-14T09:06:38.866Z,6.20
2022-12-14T09:09:15.543Z,6.80
2022-12-14T09:11:44.376Z,7.10
2022-12-14T09:14:13.035Z,7.00
2022-12-14T09:16:41.560Z,6.50
2022-12-14T09:19:09.848Z,5.90
2022-12-14T09:21:40.161Z,5.50
2022-12-14T09:24:10.290Z,5.10
2022-12-14T09:26:38.466Z,4.50
2022-12-14T09:29:07.150Z,4.00
2022-12-14T09:31:35.613Z,3.70
2022-12-14T09:34:04.489Z,3.30
2022-12-14T09:36:33.076Z,3.30
2022-12-14T09:39:03.857Z,3.60
2022-12-14T09:41:46.888Z,4.20
2022-12-14T09:44:27.830Z,4.90
2022-12-14T09:47:03.689Z,5.70
2022-12-14T09:49:34.524Z,6.40
2022-12-14T09:52:04.943Z,7.00
2022-12-14T09:54:38.352Z,7.50
2022-12-14T09:57:22.627Z,7.60
2022-12-14T09:59:53.245Z,7.60
2022-12-14T10:02:31.298Z,7.60
2022-12-14T10:05:12.191Z,7.70
2022-12-14T10:07:50.322Z,7.80
2022-12-14T10:10:26.759Z,7.50
2022-12-14T10:13:04.827Z,7.30
2022-12-14T10:15:41.069Z,7.50
2022-12-14T10:18:57.646Z,7.40
2022-12-14T10:21:17.369Z,7.50
2022-12-14T10:23:56.022Z,7.70
2022-12-14T10:26:37.149Z,7.70
2022-12-14T10:29:11.762Z,7.80
2022-12-14T10:31:49.540Z,7.90
2022-12-14T10:34:21.643Z,7.90
2022-12-14T10:36:54.877Z,7.70
2022-12-14T10:39:29.423Z,7.30
2022-12-14T10:42:05.733Z,7.40
2022-12-14T10:44:41.501Z,7.50
2022-12-14T10:47:15.454Z,7.50
2022-12-14T10:49:51.601Z,7.30
2022-12-14T10:52:23.162Z,7.20
2022-12-14T10:54:55.522Z,7.40
2022-12-14T10:57:27.519Z,7.50
2022-12-14T11:00:08.554Z,7.30
2022-12-14T11:02:41.733Z,7.10
2022-12-14T11:05:24.632Z,7.10
2022-12-14T11:07:53.079Z,6.80
2022-12-14T11:10:23.547Z,6.80
2022-12-14T11:13:05.259Z,6.90
2022-12-14T11:15:36.210Z,6.90
2022-12-14T11:18:08.414Z,6.60
2022-12-14T11:20:36.706Z,6.50
2022-12-14T11:23:22.433Z,6.70
2022-12-14T11:25:52.725Z,6.80
2022-12-14T11:28:36.603Z,6.80
2022-12-14T11:31:08.586Z,6.80
2022-12-14T11:33:40.942Z,6.80
2022-12-14T11:36:10.373Z,6.70
2022-12-14T11:38:38.762Z,6.70
2022-12-14T11:41:11.890Z,6.70
2022-12-14T11:43:41.987Z,6.80
2022-12-14T11:46:10.677Z,6.70
2022-12-14T11:48:47.564Z,6.50
2022-12-14T11:51:16.161Z,6.40
2022-12-14T11:53:44.396Z,6.30
2022-12-14T11:56:16.548Z,6.40
2022-12-14T11:58:53.572Z,6.10
2022-12-14T12:01:27.463Z,5.80
2022-12-14T12:03:58.369Z,5.70
2022-12-14T12:06:28.903Z,5.40
2022-12-14T12:08:59.908Z,5.20
2022-12-14T12:11:30.941Z,5.20
2022-12-14T12:14:02.703Z,5.00
2022-12-14T12:16:33.200Z,4.90
2022-12-14T12:19:12.141Z,4.70
2022-12-14T12:21:42.835Z,4.50
2022-12-14T12:24:18.562Z,4.40
2022-12-14T12:26:51.433Z,4.40
2022-12-14T12:29:26.579Z,4.50
2022-12-14T12:31:59.264Z,4.50
2022-12-14T12:34:32.157Z,4.40
2022-12-14T12:39:58.636Z,4.30
2022-12-14T12:42:37.339Z,4.10
2022-12-14T12:45:16.231Z,3.80
2022-12-14T12:47:51.355Z,3.80
2022-12-14T12:50:30.835Z,3.80
2022-12-14T12:53:04.009Z,3.80
2022-12-14T12:55:35.611Z,3.60
2022-12-14T12:58:10.271Z,3.60
2022-12-14T13:00:42.451Z,3.80
2022-12-14T13:03:19.683Z,3.60
2022-12-14T13:05:49.423Z,3.50
2022-12-14T13:08:25.201Z,3.20
2022-12-14T13:11:24.607Z,2.90
2022-12-14T13:13:48.191Z,2.90
2022-12-14T13:16:26.603Z,2.90
2022-12-14T13:19:19.056Z,2.80
2022-12-14T13:21:54.658Z,2.70
2022-12-14T13:24:25.165Z,2.60
2022-12-14T13:27:18.112Z,2.50
2022-12-14T13:30:04.377Z,2.50
2022-12-14T13:32:54.463Z,2.50
2022-12-14T13:35:38.940Z,2.20
2022-12-14T13:38:33.925Z,2.20
2022-12-14T13:41:17.833Z,2.20
2022-12-14T13:44:01.215Z,2.00
2022-12-14T13:46:30.915Z,1.90
2022-12-14T13:49:06.019Z,1.80
2022-12-14T13:51:38.704Z,1.90
2022-12-14T13:54:09.336Z,1.80
2022-12-14T13:56:40.549Z,1.50
2022-12-14T13:59:27.879Z,1.50
2022-12-14T14:02:00.818Z,1.50
2022-12-14T14:04:31.633Z,1.60
2022-12-14T14:07:33.851Z,1.70
2022-12-14T14:10:05.469Z,1.70
2022-12-14T14:12:39.825Z,1.60
2022-12-14T14:16:18.920Z,1.70
2022-12-14T14:18:35.698Z,1.80
2022-12-14T14:21:30.599Z,1.70
2022-12-14T14:24:01.340Z,1.60
2022-12-14T14:26:32.166Z,1.40
2022-12-14T14:29:19.456Z,1.40
2022-12-14T14:31:51.814Z,1.40
2022-12-14T14:34:26.114Z,1.40
2022-12-14T14:36:56.116Z,1.40
2022-12-14T14:42:26.288Z,1.30
2022-12-14T14:44:57.718Z,1.20
2022-12-14T14:47:29.734Z,1.10
2022-12-14T14:50:01.932Z,1.20
2022-12-14T14:53:02.062Z,1.30
2022-12-14T14:56:05.560Z,1.20
2022-12-14T14:58:36.503Z,1.20
2022-12-14T15:01:25.191Z,1.20
2022-12-14T15:04:02.302Z,1.10
2022-12-14T15:06:33.937Z,1.00
2022-12-14T15:09:13.677Z,0.90
2022-12-14T15:11:46.581Z,0.90
2022-12-14T15:14:35.038Z,0.80
2022-12-14T15:17:15.069Z,0.70
2022-12-14T15:19:49.192Z,0.70
2022-12-14T15:22:20.580Z,0.70
2022-12-14T15:24:53.085Z,0.70
2022-12-14T15:27:30.277Z,0.70
2022-12-14T15:30:07.934Z,0.70
2022-12-14T15:32:37.338Z,0.80
2022-12-14T15:35:08.874Z,0.70
2022-12-14T15:37:43.482Z,0.70
2022-12-14T15:40:16.705Z,0.60
2022-12-14T15:42:49.357Z,0.70
2022-12-14T15:45:21.289Z,0.70
2022-12-14T15:47:50.777Z,0.80
2022-12-14T15:50:25.452Z,0.80
2022-12-14T15:52:56.779Z,0.90
2022-12-14T15:55:34.280Z,0.80
2022-12-14T15:58:09.857Z,0.80
2022-12-14T16:00:42.910Z,0.70
2022-12-14T16:03:23.328Z,0.60
2022-12-14T16:05:52.003Z,0.60
2022-12-14T16:08:20.697Z,0.50
2022-12-14T16:10:52.652Z,0.40
2022-12-14T16:13:26.313Z,0.40
2022-12-14T16:15:57.172Z,0.30
2022-12-14T16:18:26.371Z,0.30
2022-12-14T16:21:00.189Z,0.30
2022-12-14T16:23:32.302Z,0.30
2022-12-14T16:26:22.882Z,0.30
2022-12-14T16:29:06.252Z,0.40
2022-12-14T16:31:35.183Z,0.30
2022-12-14T16:34:09.537Z,0.30
2022-12-14T16:36:38.623Z,0.20
2022-12-14T16:39:15.342Z,0.20
2022-12-14T16:41:55.406Z,0.10
2022-12-14T16:44:35.267Z,0.10
2022-12-14T16:47:29.058Z,0.00
2022-12-14T16:49:59.825Z,-0.10
2022-12-14T16:52:30.588Z,-0.20
2022-12-14T16:55:13.128Z,-0.20
2022-12-14T16:57:52.528Z,-0.30
2022-12-14T17:00:23.848Z,-0.40
2022-12-14T17:03:00.125Z,-0.40
2022-12-14T17:05:33.970Z,-0.50
2022-12-14T17:08:02.596Z,-0.50
2022-12-14T17:10:32.758Z,-0.50
2022-12-14T17:13:04.222Z,-0.50
2022-12-14T17:15:34.659Z,-0.60
2022-12-14T17:18:05.868Z,-0.60
2022-12-14T17:20:37.211Z,-0.70
2022-12-14T17:23:10.466Z,-0.60
2022-12-14T17:25:42.049Z,-0.60
2022-12-14T17:28:22.058Z,-0.70
2022-12-14T17:30:51.431Z,-0.60
2022-12-14T17:33:19.897Z,-0.70
2022-12-14T17:35:48.206Z,-0.70
2022-12-14T17:38:18.272Z,-0.70
2022-12-14T17:40:48.196Z,-0.80
2022-12-14T17:43:25.660Z,-0.80
2022-12-14T17:45:54.251Z,-0.80
2022-12-14T17:48:22.680Z,-0.70
2022-12-14T17:50:51.682Z,-0.80
2022-12-14T17:53:23.848Z,-0.90
2022-12-14T17:55:52.012Z,-1.00
2022-12-14T17:58:20.802Z,-1.10
2022-12-14T18:01:03.181Z,-1.10
2022-12-14T18:03:36.516Z,-1.10
2022-12-14T18:06:05.424Z,-1.20
2022-12-14T18:08:34.147Z,-1.30
2022-12-14T18:11:11.867Z,-1.30
2022-12-14T18:13:42.158Z,-1.40
2022-12-14T18:16:14.720Z,-1.40
2022-12-14T18:18:43.957Z,-1.40
2022-12-14T18:21:18.606Z,-1.50
2022-12-14T18:23:47.966Z,-1.40
2022-12-14T18:26:21.227Z,-1.40
2022-12-14T18:28:50.824Z,-1.50
2022-12-14T18:31:25.745Z,-1.50
2022-12-14T18:33:55.695Z,-1.50
2022-12-14T18:36:24.159Z,-1.50
2022-12-14T18:38:53.424Z,-1.60
2022-12-14T18:41:24.448Z,-1.70
2022-12-14T18:43:54.402Z,-1.60
2022-12-14T18:46:25.083Z,-1.70
2022-12-14T18:48:53.775Z,-1.60
2022-12-14T18:51:26.944Z,-1.50
2022-12-14T18:53:56.702Z,-1.50
2022-12-14T18:56:28.287Z,-1.40
2022-12-14T18:58:56.647Z,-1.40
2022-12-14T19:01:27.021Z,-1.40
2022-12-14T19:03:55.571Z,-1.30
2022-12-14T19:09:15.070Z,-1.30
2022-12-14T19:11:43.799Z,-1.30
2022-12-14T19:14:12.059Z,-1.40
2022-12-14T19:16:41.986Z,-1.40
2022-12-14T19:19:10.279Z,-1.50
2022-12-14T19:21:38.502Z,-1.50
2022-12-14T19:24:08.872Z,-1.50
2022-12-14T19:26:39.326Z,-1.40
2022-12-14T19:29:07.808Z,-1.60
2022-12-14T19:31:36.404Z,-1.50
2022-12-14T19:34:06.014Z,-1.40
2022-12-14T19:36:34.516Z,-1.30
2022-12-14T19:39:03.064Z,-1.60
2022-12-14T19:41:31.341Z,-1.70
2022-12-14T19:43:59.885Z,-1.70
2022-12-14T19:46:28.456Z,-1.60
2022-12-14T19:48:57.480Z,-1.60
2022-12-14T19:51:27.241Z,-1.50
2022-12-14T19:53:56.161Z,-1.40
2022-12-14T19:56:24.676Z,-1.40
2022-12-14T19:58:56.325Z,-1.40
2022-12-14T20:01:24.953Z,-1.30
2022-12-14T20:03:53.624Z,-1.40
2022-12-14T20:06:21.836Z,-1.40
2022-12-14T20:08:51.625Z,-1.40
2022-12-14T20:11:20.498Z,-1.40
2022-12-14T20:13:53.270Z,-1.40
2022-12-14T20:16:25.865Z,-1.40
2022-12-14T20:18:55.169Z,-1.60
2022-12-14T20:21:23.829Z,-1.60
2022-12-14T20:23:53.823Z,-1.60
2022-12-14T20:26:23.728Z,-1.60
2022-12-14T20:28:54.113Z,-1.60
2022-12-14T20:31:23.595Z,-1.60
2022-12-14T20:33:52.036Z,-1.80
2022-12-14T20:36:22.237Z,-1.90
2022-12-14T20:38:57.916Z,-1.80
2022-12-14T20:41:26.810Z,-1.80
2022-12-14T20:43:55.192Z,-1.80
2022-12-14T20:46:27.634Z,-1.80
2022-12-14T20:48:56.634Z,-1.70
2022-12-14T20:51:25.119Z,-1.70
2022-12-14T20:53:53.527Z,-1.70
2022-12-14T20:56:23.322Z,-1.70
2022-12-14T20:58:51.905Z,-1.70
2022-12-14T21:01:21.490Z,-1.70
2022-12-14T21:03:51.294Z,-1.70
2022-12-14T21:06:22.268Z,-1.60
2022-12-14T21:09:05.296Z,-1.70
2022-12-14T21:11:55.557Z,-1.70
2022-12-14T21:14:26.742Z,-1.70
2022-12-14T21:16:55.296Z,-1.80
2022-12-14T21:19:24.125Z,-1.80
2022-12-14T21:21:54.014Z,-1.90
2022-12-14T21:27:17.215Z,-1.90
2022-12-14T21:29:45.689Z,-1.90
2022-12-14T21:32:14.430Z,-2.00
2022-12-14T21:34:43.559Z,-2.10
2022-12-14T21:37:12.514Z,-2.10
2022-12-14T21:39:41.381Z,-2.10
2022-12-14T21:42:13.329Z,-2.10
2022-12-14T21:44:45.107Z,-2.10
2022-12-14T21:47:15.693Z,-2.20
2022-12-14T21:49:46.124Z,-2.30
2022-12-14T21:52:17.078Z,-2.40
2022-12-14T21:54:45.612Z,-2.40
2022-12-14T21:57:33.389Z,-2.40
2022-12-14T22:00:03.396Z,-2.40
2022-12-14T22:02:31.768Z,-2.40
2022-12-14T22:05:00.331Z,-2.50
2022-12-14T22:07:32.303Z,-2.50
2022-12-14T22:10:00.659Z,-2.50
2022-12-14T22:12:29.722Z,-2.40
2022-12-14T22:14:58.019Z,-2.50
2022-12-14T22:17:27.699Z,-2.50
2022-12-14T22:19:56.298Z,-2.50
2022-12-14T22:22:24.566Z,-2.50
2022-12-14T22:24:52.742Z,-2.50
2022-12-14T22:27:21.890Z,-2.40
2022-12-14T22:29:50.025Z,-2.40
2022-12-14T22:32:18.415Z,-2.40
2022-12-14T22:34:48.376Z,-2.40
2022-12-14T22:37:17.575Z,-2.30
2022-12-14T22:39:47.774Z,-2.30
2022-12-14T22:42:17.122Z,-2.30
2022-12-14T22:44:45.570Z,-2.30
2022-12-14T22:47:13.864Z,-2.20
2022-12-14T22:49:42.408Z,-2.30
2022-12-14T22:52:12.215Z,-2.30
2022-12-14T22:54:41.047Z,-2.30
2022-12-14T22:57:15.162Z,-2.30
2022-12-14T22:59:50.203Z,-2.40
2022-12-14T23:02:18.745Z,-2.40
2022-12-14T23:04:50.167Z,-2.40
2022-12-14T23:07:20.054Z,-2.40
2022-12-14T23:10:05.915Z,-2.40
2022-12-14T23:12:51.841Z,-2.40
2022-12-14T23:15:37.603Z,-2.40
2022-12-14T23:18:25.286Z,-2.40
2022-12-14T23:21:11.875Z,-2.40
2022-12-14T23:24:00.474Z,-2.30
2022-12-14T23:26:46.443Z,-2.30
2022-12-14T23:29:32.333Z,-2.30
2022-12-14T23:32:18.503Z,-2.30
2022-12-14T23:35:04.430Z,-2.30
2022-12-14T23:37:50.358Z,-2.30
2022-12-14T23:40:37.472Z,-2.30
2022-12-14T23:43:30.867Z,-2.30
2022-12-14T23:46:17.071Z,-2.20
2022-12-14T23:49:03.111Z,-2.20
2022-12-14T23:51:49.322Z,-2.30
2022-12-14T23:54:35.610Z,-2.30
2022-12-14T23:57:26.066Z,-2.30
